Time;durP1;ratioP1;P1;durP2;ratioP2;P2;SDS_P1;SDS_P2;PMS_P1;PMS_P2;Temp;Humidity;BMP_temperature;BMP_pressure;BME280_temperature;BME280_humidity;BME280_pressure;Samples;Min_cycle;Max_cycle;Signal;HPM_P1;HPM_P2
2024/04/08 00:01:43;;;;;;;4.07;1.10;;;20.40;99.90;;;;;;10428276;28;23007;-59
2024/04/08 00:06:48;;;;;;;7.15;1.45;;;20.50;99.90;;;;;;10432368;28;20182;-56
2024/04/08 00:11:50;;;;;;;8.40;1.48;;;20.50;99.90;;;;;;10428676;28;20140;-56
2024/04/08 00:16:52;;;;;;;11.20;1.80;;;20.40;99.90;;;;;;10428365;28;20542;-55
2024/04/08 00:21:56;;;;;;;8.35;1.50;;;20.40;99.90;;;;;;10429622;28;20830;-57
2024/04/08 00:26:58;;;;;;;4.25;1.50;;;20.40;99.90;;;;;;10421622;28;20056;-57
2024/04/08 00:32:00;;;;;;;;;;;20.40;99.90;;;;;;10426021;28;20083;-54
2024/04/08 00:37:07;;;;;;;7.38;1.77;;;20.40;99.90;;;;;;10425692;28;20391;-55
2024/04/08 00:42:14;;;;;;;6.20;1.35;;;20.40;99.90;;;;;;10421490;28;22558;-57
2024/04/08 00:47:21;;;;;;;12.55;2.88;;;20.40;99.90;;;;;;10422748;28;20081;-55
2024/04/08 00:52:27;;;;;;;2.80;1.20;;;20.30;99.90;;;;;;10427845;28;20049;-58
2024/04/08 00:57:32;;;;;;;10.10;1.58;;;20.40;99.90;;;;;;10421422;28;20187;-57
2024/04/08 01:02:34;;;;;;;8.13;1.40;;;20.30;99.90;;;;;;10420685;28;20416;-58
2024/04/08 01:07:37;;;;;;;9.25;2.15;;;20.30;99.90;;;;;;10428525;28;20092;-56
2024/04/08 01:12:41;;;;;;;11.75;2.30;;;20.30;99.90;;;;;;10426389;28;20069;-57
2024/04/08 01:17:46;;;;;;;10.57;2.15;;;20.30;99.90;;;;;;10426171;28;20179;-58
2024/04/08 01:23:00;;;;;;;5.57;1.35;;;20.20;99.90;;;;;;10433839;28;20531;-57
2024/04/08 01:28:05;;;;;;;10.32;1.58;;;20.20;99.90;;;;;;10431740;28;20055;-56
2024/04/08 01:33:10;;;;;;;7.45;1.40;;;20.10;99.90;;;;;;10426648;28;20053;-56
2024/04/08 01:38:14;;;;;;;4.95;1.10;;;20.10;99.90;;;;;;10430636;28;20057;-56
2024/04/08 01:43:18;;;;;;;5.18;1.02;;;20.10;99.90;;;;;;10430428;28;20051;-56
2024/04/08 01:48:21;;;;;;;6.25;1.17;;;20.10;99.90;;;;;;10431118;28;20497;-54
2024/04/08 01:53:24;;;;;;;6.45;1.23;;;20.10;99.90;;;;;;10422513;28;20131;-56
2024/04/08 01:58:27;;;;;;;5.40;0.95;;;20.00;99.90;;;;;;10428600;28;20057;-57
2024/04/08 02:03:31;;;;;;;6.70;1.48;;;20.00;99.90;;;;;;10428997;28;20056;-56
2024/04/08 02:08:36;;;;;;;12.55;1.35;;;20.00;99.90;;;;;;10427780;28;20073;-56
2024/04/08 02:13:41;;;;;;;8.65;1.88;;;19.90;99.90;;;;;;10431187;28;20718;-57
2024/04/08 02:18:43;;;;;;;6.88;1.42;;;19.90;99.90;;;;;;10427860;28;20471;-57
2024/04/08 02:23:49;;;;;;;4.22;1.30;;;19.90;99.90;;;;;;10426186;28;20297;-55
2024/04/08 02:28:52;;;;;;;5.00;1.25;;;19.80;99.90;;;;;;10430576;28;20131;-56
2024/04/08 02:33:57;;;;;;;5.00;1.40;;;19.70;99.90;;;;;;10429168;28;20053;-56
2024/04/08 02:38:59;;;;;;;8.73;1.38;;;19.80;99.90;;;;;;10428380;28;20159;-55
2024/04/08 02:44:02;;;;;;;3.35;1.25;;;19.70;99.90;;;;;;10424159;28;21076;-57
2024/04/08 02:49:04;;;;;;;4.50;1.10;;;19.70;99.90;;;;;;10427645;28;20052;-55
2024/04/08 02:54:06;;;;;;;11.32;1.50;;;19.60;99.90;;;;;;10425931;28;20075;-58
2024/04/08 02:59:12;;;;;;;6.68;1.45;;;19.60;99.90;;;;;;10429394;28;20102;-57
2024/04/08 03:04:14;;;;;;;6.78;1.63;;;19.50;99.90;;;;;;10429998;28;20938;-56
2024/04/08 03:09:17;;;;;;;4.22;0.90;;;19.50;99.90;;;;;;10430102;28;20056;-56
2024/04/08 03:14:23;;;;;;;6.60;1.35;;;19.50;99.90;;;;;;10432529;28;20056;-64
2024/04/08 03:19:27;;;;;;;5.82;1.17;;;19.50;99.90;;;;;;10435635;28;20566;-57
2024/04/08 03:24:31;;;;;;;5.03;1.80;;;19.50;99.90;;;;;;10441213;28;20109;-55
2024/04/08 03:29:35;;;;;;;8.70;1.45;;;19.40;99.90;;;;;;10439033;28;20049;-56
2024/04/08 03:34:37;;;;;;;3.13;1.08;;;19.40;99.90;;;;;;10433284;28;20033;-54
2024/04/08 03:39:41;;;;;;;5.40;1.70;;;19.60;99.90;;;;;;10427595;28;20622;-56
2024/04/08 03:44:48;;;;;;;6.95;1.50;;;19.60;99.90;;;;;;10430519;28;20083;-55
2024/04/08 03:49:53;;;;;;;5.65;1.75;;;19.70;99.90;;;;;;10427988;28;20055;-56
2024/04/08 03:54:59;;;;;;;3.53;1.45;;;19.70;99.90;;;;;;10425345;28;20052;-56
2024/04/08 04:00:06;;;;;;;7.43;2.05;;;19.80;99.90;;;;;;10430926;28;20057;-57
2024/04/08 04:05:08;;;;;;;5.72;1.30;;;19.80;99.90;;;;;;10434110;28;20048;-59
2024/04/08 04:10:12;;;;;;;5.50;1.45;;;19.70;99.90;;;;;;10425824;28;20060;-56
2024/04/08 04:15:17;;;;;;;3.70;1.38;;;19.60;99.90;;;;;;10430361;28;20051;-57
2024/04/08 04:20:31;;;;;;;6.47;1.85;;;19.70;99.90;;;;;;10425444;28;20049;-58
2024/04/08 04:25:35;;;;;;;4.35;1.42;;;19.70;99.90;;;;;;10427221;28;20057;-54
2024/04/08 04:30:40;;;;;;;7.75;1.73;;;19.70;99.90;;;;;;10433535;28;20052;-55
2024/04/08 04:35:52;;;;;;;6.97;1.35;;;19.30;99.90;;;;;;10427931;28;20083;-54
2024/04/08 04:41:01;;;;;;;5.90;1.98;;;19.50;99.90;;;;;;10423079;28;20056;-55
2024/04/08 04:46:05;;;;;;;5.70;1.60;;;19.60;99.90;;;;;;10421516;28;21001;-52
2024/04/08 04:51:11;;;;;;;6.82;3.15;;;19.70;99.90;;;;;;10426516;28;20064;-51
2024/04/08 04:56:13;;;;;;;5.50;2.03;;;19.70;99.90;;;;;;10418606;28;20174;-54
2024/04/08 05:01:17;;;;;;;4.43;2.03;;;19.70;99.90;;;;;;10420853;28;20053;-55
2024/04/08 05:06:25;;;;;;;3.90;2.55;;;19.80;99.90;;;;;;10419784;28;20052;-58
2024/04/08 05:11:27;;;;;;;6.93;3.17;;;19.30;99.90;;;;;;10417924;28;20057;-57
2024/04/08 05:16:35;;;;;;;;;;;19.20;99.90;;;;;;10417653;28;20052;-59
2024/04/08 05:21:43;;;;;;;4.30;2.55;;;19.10;99.90;;;;;;10420355;28;19927;-59
2024/04/08 05:26:45;;;;;;;8.27;3.55;;;19.10;99.90;;;;;;10420962;28;20041;-56
2024/04/08 05:31:50;;;;;;;6.03;2.92;;;19.30;99.90;;;;;;10420362;28;20053;-58
2024/04/08 05:36:54;;;;;;;5.88;3.20;;;19.40;99.90;;;;;;10415801;28;20057;-58
2024/04/08 05:41:56;;;;;;;10.05;2.92;;;19.30;99.90;;;;;;10411577;28;20571;-59
2024/04/08 05:46:59;;;;;;;6.72;2.78;;;19.60;99.90;;;;;;10418227;28;20555;-58
2024/04/08 05:52:07;;;;;;;4.38;2.58;;;19.40;99.90;;;;;;10412198;28;20080;-58
2024/04/08 05:57:09;;;;;;;6.32;2.90;;;19.50;99.90;;;;;;10410037;28;20393;-56
2024/04/08 06:02:12;;;;;;;4.95;2.35;;;19.40;99.90;;;;;;10421569;28;20052;-59
2024/04/08 06:07:14;;;;;;;8.45;3.17;;;19.60;99.90;;;;;;10422191;28;20135;-59
2024/04/08 06:12:17;;;;;;;5.57;2.38;;;19.40;99.90;;;;;;10420988;28;20476;-59
2024/04/08 06:17:22;;;;;;;;;;;19.30;99.90;;;;;;10422309;28;20049;-59
2024/04/08 06:22:24;;;;;;;6.35;1.95;;;19.20;99.90;;;;;;10426730;28;19929;-59
2024/04/08 06:27:29;;;;;;;7.00;2.50;;;19.30;99.90;;;;;;10428454;28;20051;-58
2024/04/08 06:32:35;;;;;;;4.63;2.58;;;19.20;99.90;;;;;;10426056;28;20076;-57
2024/04/08 06:37:42;;;;;;;5.07;2.75;;;19.40;99.90;;;;;;10429256;28;20105;-59
2024/04/08 06:42:44;;;;;;;4.97;2.97;;;19.20;99.90;;;;;;10429788;28;20451;-59
2024/04/08 06:47:54;;;;;;;6.88;2.33;;;19.10;99.90;;;;;;10433379;28;20056;-56
2024/04/08 06:52:56;;;;;;;7.00;2.30;;;19.00;99.90;;;;;;10433713;28;20052;-59
2024/04/08 06:57:58;;;;;;;9.75;3.42;;;19.40;99.90;;;;;;10434071;28;20064;-59
2024/04/08 07:03:04;;;;;;;9.55;3.47;;;18.50;99.90;;;;;;10428998;28;20041;-58
2024/04/08 07:08:09;;;;;;;13.77;3.03;;;18.40;99.90;;;;;;10423121;28;20060;-57
2024/04/08 07:13:11;;;;;;;7.93;3.08;;;18.70;99.90;;;;;;10428805;28;20951;-57
2024/04/08 07:18:17;;;;;;;4.72;2.97;;;18.30;99.90;;;;;;10427886;28;20044;-58
2024/04/08 07:23:19;;;;;;;4.50;2.65;;;18.30;99.90;;;;;;10428795;28;20048;-58
2024/04/08 07:28:21;;;;;;;7.22;3.00;;;19.00;99.90;;;;;;10431655;28;20045;-58
2024/04/08 07:33:25;;;;;;;5.65;3.55;;;19.40;99.90;;;;;;10428278;28;20041;-63
2024/04/08 07:38:27;;;;;;;5.95;3.05;;;19.50;99.90;;;;;;10424328;28;20140;-57
2024/04/08 07:43:36;;;;;;;6.72;3.17;;;19.60;99.90;;;;;;10422008;28;20535;-60
2024/04/08 07:48:40;;;;;;;5.95;3.05;;;19.70;99.90;;;;;;10422830;28;20147;-59
2024/04/08 07:53:42;;;;;;;5.10;2.70;;;19.80;99.90;;;;;;10425469;28;20465;-59
2024/04/08 07:58:44;;;;;;;3.63;2.05;;;19.90;99.90;;;;;;10417216;28;20167;-57
2024/04/08 08:03:47;;;;;;;4.20;2.83;;;19.90;99.90;;;;;;10421784;28;20071;-56
2024/04/08 08:08:50;;;;;;;6.38;3.28;;;20.00;99.90;;;;;;10425957;28;20056;-58
2024/04/08 08:13:52;;;;;;;3.45;2.38;;;20.10;99.90;;;;;;10412012;28;20432;-58
2024/04/08 08:18:58;;;;;;;4.60;2.17;;;20.20;99.90;;;;;;10416251;28;21274;-57
2024/04/08 08:24:02;;;;;;;5.25;2.13;;;20.20;99.90;;;;;;10422285;28;20102;-59
2024/04/08 08:29:07;;;;;;;6.25;2.35;;;20.30;99.90;;;;;;10414881;28;20053;-57
2024/04/08 08:34:13;;;;;;;5.10;2.05;;;20.40;99.90;;;;;;10420104;28;20048;-59
2024/04/08 08:39:18;;;;;;;5.55;2.97;;;20.50;99.90;;;;;;10418788;28;20139;-58
2024/04/08 08:44:26;;;;;;;4.50;2.67;;;20.60;99.90;;;;;;10420134;28;20089;-57
2024/04/08 08:49:33;;;;;;;6.07;2.80;;;20.60;99.90;;;;;;10425476;28;20057;-57
2024/04/08 08:54:37;;;;;;;5.82;3.50;;;20.70;99.90;;;;;;10419587;28;20049;-56
2024/04/08 08:59:43;;;;;;;10.15;4.28;;;20.90;99.90;;;;;;10417660;28;20860;-59
2024/04/08 09:04:47;;;;;;;17.42;3.88;;;21.00;99.90;;;;;;10419245;28;20036;-59
2024/04/08 09:09:56;;;;;;;8.38;3.78;;;21.10;99.90;;;;;;10422606;28;20048;-58
2024/04/08 09:15:03;;;;;;;4.43;2.95;;;21.10;99.90;;;;;;10418680;28;20822;-57
2024/04/08 09:20:08;;;;;;;7.57;3.80;;;21.20;99.90;;;;;;10426936;28;20060;-58
2024/04/08 09:25:12;;;;;;;7.20;2.78;;;21.20;99.90;;;;;;10419178;28;20900;-59
2024/04/08 09:30:14;;;;;;;5.95;2.38;;;21.40;99.90;;;;;;10420189;28;20060;-56
2024/04/08 09:35:21;;;;;;;;;;;21.50;99.90;;;;;;10419952;28;20136;-57
2024/04/08 09:40:27;;;;;;;4.00;2.42;;;21.50;99.90;;;;;;10422124;28;19924;-55
2024/04/08 09:45:42;;;;;;;4.65;2.45;;;21.50;99.90;;;;;;10430250;28;20433;-59
2024/04/08 09:50:51;;;;;;;4.82;2.10;;;21.30;99.90;;;;;;10433476;28;20087;-59
2024/04/08 09:55:57;;;;;;;4.53;1.80;;;21.40;99.90;;;;;;10428016;28;20133;-57
2024/04/08 10:01:04;;;;;;;5.00;1.80;;;21.60;99.90;;;;;;10428272;28;20148;-56
2024/04/08 10:06:11;;;;;;;3.67;2.00;;;21.70;99.90;;;;;;10429606;28;20052;-57
2024/04/08 10:11:15;;;;;;;1.95;1.30;;;21.70;99.90;;;;;;10430579;28;20060;-60
2024/04/08 10:16:20;;;;;;;1.83;1.40;;;21.80;99.90;;;;;;10426003;28;20130;-59
2024/04/08 10:21:34;;;;;;;4.60;1.48;;;21.90;99.90;;;;;;10426589;28;20690;-58
2024/04/08 10:26:37;;;;;;;5.07;1.90;;;21.60;99.90;;;;;;10418350;28;20055;-58
2024/04/08 10:31:43;;;;;;;7.57;2.50;;;21.90;99.90;;;;;;10423925;28;20126;-57
2024/04/08 10:37:11;;;;;;;5.03;2.17;;;21.70;99.90;;;;;;10427009;28;20045;-57
2024/04/08 10:42:18;;;;;;;5.88;1.63;;;22.00;99.90;;;;;;10427508;28;20574;-57
2024/04/08 10:47:20;;;;;;;4.13;1.52;;;22.10;99.90;;;;;;10423436;28;20931;-57
2024/04/08 10:52:24;;;;;;;;;;;22.10;99.90;;;;;;10423531;28;20056;-58
2024/04/08 10:57:26;;;;;;;5.57;1.77;;;22.20;99.90;;;;;;10422232;28;20756;-58
2024/04/08 11:02:28;;;;;;;4.38;2.08;;;22.10;99.90;;;;;;10423104;28;20388;-58
2024/04/08 11:07:35;;;;;;;;;;;22.20;99.90;;;;;;10423957;28;22530;-59
2024/04/08 11:13:00;;;;;;;4.15;2.05;;;22.00;99.90;;;;;;10428142;28;19924;-58
2024/04/08 11:18:10;;;;;;;12.63;2.50;;;22.10;99.90;;;;;;10423770;28;21003;-59
2024/04/08 11:23:14;;;;;;;7.47;3.00;;;22.20;99.90;;;;;;10421694;28;20052;-59
2024/04/08 11:28:16;;;;;;;7.88;2.83;;;22.10;99.90;;;;;;10423107;28;20882;-58
2024/04/08 11:33:18;;;;;;;;;;;22.20;99.90;;;;;;10420582;28;20049;-57
2024/04/08 11:38:21;;;;;;;3.47;1.93;;;22.30;99.90;;;;;;10420242;28;19967;-58
2024/04/08 11:43:39;;;;;;;3.30;2.15;;;22.30;99.90;;;;;;10426269;28;20044;-59
2024/04/08 11:48:45;;;;;;;4.85;2.13;;;22.30;99.90;;;;;;10422264;28;20756;-59
2024/04/08 11:53:51;;;;;;;2.90;2.00;;;21.90;99.90;;;;;;10426043;28;20657;-59
2024/04/08 11:58:53;;;;;;;5.72;2.65;;;22.20;99.90;;;;;;10421596;28;20669;-59
2024/04/08 12:04:00;;;;;;;;;;;22.30;99.90;;;;;;10421936;28;20145;-59
2024/04/08 12:09:05;;;;;;;8.50;3.58;;;22.50;99.90;;;;;;10428490;28;19925;-60
2024/04/08 12:14:07;;;;;;;9.65;3.10;;;22.50;99.90;;;;;;10429903;28;20061;-59
2024/04/08 12:19:10;;;;;;;;;;;22.70;99.90;;;;;;10428337;28;20420;-58
2024/04/08 12:24:24;;;;;;;4.78;2.80;;;22.90;99.90;;;;;;10424533;28;19925;-57
2024/04/08 12:29:30;;;;;;;5.47;3.35;;;23.00;99.90;;;;;;10428599;28;20057;-59
2024/04/08 12:34:40;;;;;;;8.40;3.42;;;22.90;99.90;;;;;;10421814;28;20045;-57
2024/04/08 12:39:46;;;;;;;7.20;3.47;;;22.70;99.30;;;;;;10417879;28;20927;-60
2024/04/08 12:44:55;;;;;;;6.57;3.08;;;22.70;99.80;;;;;;10422553;28;20151;-56
2024/04/08 12:49:57;;;;;;;7.03;3.35;;;22.80;99.90;;;;;;10418193;28;20049;-57
2024/04/08 12:55:11;;;;;;;5.57;3.05;;;23.20;99.90;;;;;;10423521;28;20081;-56
2024/04/08 13:00:16;;;;;;;5.90;3.40;;;23.20;99.90;;;;;;10425633;28;20140;-58
2024/04/08 13:05:22;;;;;;;6.57;2.95;;;23.70;99.90;;;;;;10416976;28;20053;-58
2024/04/08 13:10:29;;;;;;;4.30;2.55;;;24.20;99.90;;;;;;10420858;28;20049;-59
2024/04/08 13:20:51;;;;;;;3.88;2.17;;;24.50;99.80;;;;;;10423263;28;20049;-59
2024/04/08 13:25:55;;;;;;;4.88;2.92;;;24.70;99.90;;;;;;10427307;28;20056;-59
2024/04/08 13:30:57;;;;;;;9.40;2.38;;;24.80;99.90;;;;;;10426461;28;20764;-57
2024/04/08 13:36:09;;;;;;;3.35;2.13;;;24.90;99.90;;;;;;10426867;28;20052;-58
2024/04/08 13:41:15;;;;;;;4.97;2.05;;;25.00;98.70;;;;;;10433393;28;20125;-59
2024/04/08 13:46:17;;;;;;;4.22;1.80;;;25.00;99.90;;;;;;10427480;28;20045;-58
2024/04/08 13:51:21;;;;;;;3.45;1.48;;;25.00;99.20;;;;;;10426366;28;20052;-59
2024/04/08 13:56:27;;;;;;;3.10;1.58;;;25.00;99.90;;;;;;10425023;28;20442;-57
2024/04/08 14:01:31;;;;;;;6.55;2.10;;;25.10;99.90;;;;;;10430992;28;20060;-58
2024/04/08 14:06:34;;;;;;;5.40;1.50;;;25.10;99.50;;;;;;10424185;28;20072;-58
2024/04/08 14:11:42;;;;;;;3.67;1.25;;;25.10;99.90;;;;;;10423890;28;20857;-58
2024/04/08 14:16:48;;;;;;;4.22;1.63;;;25.30;99.90;;;;;;10432124;28;20861;-58
2024/04/08 14:21:54;;;;;;;4.60;1.50;;;25.60;99.90;;;;;;10425530;28;20060;-63
2024/04/08 14:27:00;;;;;;;3.80;1.30;;;26.10;96.30;;;;;;10422230;28;20044;-59
2024/04/08 14:32:03;;;;;;;3.10;1.00;;;26.50;97.70;;;;;;10423660;28;20049;-59
2024/04/08 14:37:14;;;;;;;3.67;1.30;;;26.80;94.90;;;;;;10417390;28;22770;-62
2024/04/08 14:42:18;;;;;;;1.97;1.37;;;27.30;93.90;;;;;;10427056;28;20057;-59
2024/04/08 14:47:22;;;;;;;5.20;1.35;;;28.10;92.10;;;;;;10428706;28;20049;-58
2024/04/08 14:52:24;;;;;;;4.03;1.50;;;28.70;90.00;;;;;;10426669;28;20049;-60
2024/04/08 14:57:31;;;;;;;4.72;2.28;;;29.70;89.60;;;;;;10424956;28;20052;-59
2024/04/08 15:02:34;;;;;;;5.05;1.40;;;30.30;83.30;;;;;;10428675;28;20661;-58
2024/04/08 15:07:37;;;;;;;4.15;1.20;;;29.90;82.50;;;;;;10423272;28;20845;-58
2024/04/08 15:12:48;;;;;;;3.33;1.20;;;29.40;81.50;;;;;;10432090;28;20194;-59
2024/04/08 15:17:52;;;;;;;4.28;1.35;;;29.70;86.60;;;;;;10422914;28;22699;-59
2024/04/08 15:22:58;;;;;;;4.13;1.30;;;30.30;81.80;;;;;;10423244;28;20233;-59
2024/04/08 15:28:14;;;;;;;3.17;1.60;;;30.90;75.60;;;;;;10426615;28;20920;-60
2024/04/08 15:33:16;;;;;;;3.10;1.10;;;31.30;75.10;;;;;;10425658;28;20045;-60
2024/04/08 15:38:18;;;;;;;4.43;1.35;;;32.20;74.40;;;;;;10426515;28;20812;-58
2024/04/08 15:43:25;;;;;;;3.60;1.30;;;31.50;86.00;;;;;;10422352;28;20056;-58
2024/04/08 15:50:23;;;;;;;5.65;1.35;;;32.00;77.70;;;;;;11419015;25;20450;-61
2024/04/08 15:55:30;;;;;;;3.55;1.45;;;32.50;77.10;;;;;;11357976;25;20037;-58
2024/04/08 16:00:35;;;;;;;4.10;1.52;;;32.60;80.60;;;;;;11360092;25;20397;-56
2024/04/08 16:05:53;;;;;;;4.78;1.45;;;32.20;91.00;;;;;;11348564;25;20002;-58
2024/04/08 16:11:11;;;;;;;4.07;1.27;;;32.60;77.60;;;;;;11348454;25;20013;-58
2024/04/08 16:16:15;;;;;;;2.95;1.20;;;33.10;89.60;;;;;;11361780;25;20285;-56
2024/04/08 16:21:27;;;;;;;5.68;1.20;;;33.50;78.40;;;;;;11368369;25;20100;-61
2024/04/08 16:26:33;;;;;;;4.75;1.30;;;33.70;73.60;;;;;;11364542;25;20014;-60
2024/04/08 16:31:37;;;;;;;4.60;1.10;;;33.70;76.80;;;;;;11377459;25;20020;-59
2024/04/08 16:36:48;;;;;;;4.80;1.13;;;;;;;;;;11371576;25;20029;-57
2024/04/08 16:41:52;;;;;;;4.65;1.38;;;;;;;;;;11367865;25;20029;-59
2024/04/08 16:47:00;;;;;;;9.02;1.30;;;;;;;;;;11370325;25;20094;-60
2024/04/08 16:52:10;;;;;;;6.43;1.52;;;;;;;;;;11355446;25;20005;-57
2024/04/08 16:57:15;;;;;;;7.15;2.03;;;;;;;;;;11342900;25;20842;-56
2024/04/08 17:02:20;;;;;;;4.28;1.65;;;;;;;;;;11329464;26;20022;-59
2024/04/08 17:07:31;;;;;;;6.28;1.17;;;;;;;;;;11334548;26;20006;-59
2024/04/08 17:12:36;;;;;;;4.65;1.50;;;;;;;;;;11321268;26;20001;-59
2024/04/08 17:17:43;;;;;;;4.65;1.42;;;;;;;;;;11328166;26;20001;-59
2024/04/08 17:22:53;;;;;;;9.13;1.60;;;;;;;;;;11306249;26;20543;-58
2024/04/08 17:27:59;;;;;;;6.25;1.25;;;;;;;;;;11311428;26;20710;-58
2024/04/08 17:33:05;;;;;;;5.15;1.65;;;;;;;;;;11306428;26;20014;-59
2024/04/08 17:38:12;;;;;;;7.97;1.70;;;;;;;;;;11317661;26;20058;-59
2024/04/08 17:43:16;;;;;;;6.85;1.23;;;;;;;;;;11320579;26;20808;-59
2024/04/08 17:48:29;;;;;;;5.38;1.60;;;;;;;;;;11335647;26;20009;-60
2024/04/08 17:53:39;;;;;;;8.10;1.92;;;;;;;;;;11327631;26;20034;-59
2024/04/08 17:58:44;;;;;;;5.05;1.80;;;;;;;;;;11326515;26;20040;-60
2024/04/08 18:03:50;;;;;;;6.55;1.35;;;;;;;;;;11319768;26;20739;-60
2024/04/08 18:09:00;;;;;;;6.30;1.77;;;;;;;;;;11330150;26;20010;-61
2024/04/08 18:14:06;;;;;;;8.63;1.60;;;;;;;;;;11330149;26;20079;-59
2024/04/08 18:19:10;;;;;;;10.70;2.30;;;;;;;;;;11328020;26;20057;-59
2024/04/08 18:24:17;;;;;;;13.68;2.45;;;31.20;79.40;;;;;;11331546;26;20612;-61
2024/04/08 18:29:25;;;;;;;8.07;1.98;;;31.00;68.70;;;;;;11326839;26;20025;-59
2024/04/08 18:34:31;;;;;;;8.93;3.10;;;31.00;77.50;;;;;;11309051;26;20010;-58
2024/04/08 18:39:41;;;;;;;8.63;2.58;;;30.60;82.40;;;;;;11310940;26;20029;-58
2024/04/08 18:44:46;;;;;;;7.97;2.72;;;30.50;84.60;;;;;;11310168;26;20018;-59
2024/04/08 18:49:54;;;;;;;9.73;3.17;;;29.60;76.10;;;;;;11311658;25;20560;-58
2024/04/08 18:55:13;;;;;;;7.50;2.47;;;29.20;79.50;;;;;;11314261;26;20021;-61
2024/04/08 19:00:21;;;;;;;6.20;2.22;;;29.00;92.30;;;;;;11326256;26;20556;-60
2024/04/08 19:05:26;;;;;;;9.45;3.05;;;29.20;91.80;;;;;;11326601;26;20005;-60
2024/04/08 19:10:33;;;;;;;6.57;1.75;;;29.00;93.00;;;;;;11323924;26;20010;-60
2024/04/08 19:15:37;;;;;;;8.18;2.53;;;28.80;93.20;;;;;;11318289;26;20060;-59
2024/04/08 19:20:45;;;;;;;6.30;1.90;;;28.70;92.50;;;;;;11309133;26;20097;-60
2024/04/08 19:26:03;;;;;;;9.85;2.33;;;28.40;94.90;;;;;;11313788;26;20026;-60
2024/04/08 19:31:11;;;;;;;10.15;2.30;;;28.30;94.10;;;;;;11319391;26;20029;-60
2024/04/08 19:36:33;;;;;;;7.35;2.05;;;28.10;94.40;;;;;;11318181;26;20014;-60
2024/04/08 19:41:56;;;;;;;13.10;2.60;;;27.90;95.40;;;;;;11319177;26;20045;-59
2024/04/08 19:47:01;;;;;;;14.50;3.15;;;27.70;95.50;;;;;;11323908;25;20379;-60
2024/04/08 19:52:09;;;;;;;7.38;2.30;;;27.50;96.40;;;;;;11308841;26;20084;-59
2024/04/08 19:57:16;;;;;;;5.40;1.95;;;27.30;96.90;;;;;;11304231;26;20005;-60
2024/04/08 20:02:33;;;;;;;8.98;2.33;;;27.20;97.20;;;;;;11302635;26;20014;-59
2024/04/08 20:07:38;;;;;;;6.13;2.42;;;27.00;97.70;;;;;;11309298;26;20013;-59
2024/04/08 20:13:00;;;;;;;12.77;3.33;;;26.80;97.90;;;;;;11311204;26;20079;-60
2024/04/08 20:18:21;;;;;;;7.18;2.60;;;26.70;98.50;;;;;;11316813;26;20435;-60
2024/04/08 20:23:26;;;;;;;12.60;3.40;;;26.50;98.40;;;;;;11323280;26;20009;-59
2024/04/08 20:28:38;;;;;;;16.63;4.07;;;26.40;98.60;;;;;;11324477;26;20492;-60
2024/04/08 20:33:51;;;;;;;15.00;4.28;;;26.20;99.00;;;;;;11321212;26;20002;-60
2024/04/08 20:38:56;;;;;;;14.52;4.57;;;26.10;99.40;;;;;;11334577;26;20002;-59
2024/04/08 20:44:03;;;;;;;8.55;3.33;;;25.90;99.40;;;;;;11342661;26;20049;-59
2024/04/08 20:49:10;;;;;;;12.27;3.80;;;25.80;99.90;;;;;;11338009;26;20006;-60
2024/04/08 20:54:16;;;;;;;12.55;3.80;;;25.70;99.90;;;;;;11337644;25;20069;-60
2024/04/08 20:59:32;;;;;;;14.55;6.22;;;25.50;99.90;;;;;;11329850;26;20022;-60
2024/04/08 21:04:47;;;;;;;7.63;4.10;;;25.40;99.90;;;;;;11334850;26;20020;-59
2024/04/08 21:09:52;;;;;;;12.10;4.68;;;25.30;99.90;;;;;;11332013;26;20033;-60
2024/04/08 21:15:00;;;;;;;13.20;4.32;;;25.20;99.90;;;;;;11333795;26;20473;-59
2024/04/08 21:20:06;;;;;;;10.75;4.97;;;25.10;99.90;;;;;;11327198;25;20013;-59
2024/04/08 21:25:13;;;;;;;9.98;4.32;;;25.00;99.90;;;;;;11321343;26;20024;-59
2024/04/08 21:30:20;;;;;;;8.80;3.88;;;24.90;99.90;;;;;;11331612;26;20021;-58
2024/04/08 21:35:27;;;;;;;9.35;3.30;;;24.80;99.90;;;;;;11323145;26;20559;-60
2024/04/08 21:40:31;;;;;;;10.73;6.05;;;24.70;99.90;;;;;;11331104;26;20016;-57
2024/04/08 21:45:40;;;;;;;14.25;6.05;;;24.60;99.90;;;;;;11348986;26;20030;-59
2024/04/08 21:50:48;;;;;;;14.88;5.07;;;24.50;99.90;;;;;;11340513;26;20018;-59
2024/04/08 21:55:58;;;;;;;16.10;6.70;;;24.40;99.90;;;;;;11315677;26;20036;-60
2024/04/08 22:01:11;;;;;;;11.30;4.53;;;24.30;99.90;;;;;;11316407;26;20026;-59
2024/04/08 22:06:22;;;;;;;;;;;21.80;99.90;;;;;;11334466;26;20494;-56
2024/04/08 22:11:27;;;;;;;0.05;0.05;;;18.80;99.90;;;;;;11328974;25;19943;-57
2024/04/08 22:16:39;;;;;;;0.10;0.10;;;18.10;99.90;;;;;;11320398;26;20018;-56
2024/04/08 22:27:06;;;;;;;0.00;0.00;;;16.50;99.90;;;;;;11319346;26;20702;-58
2024/04/08 22:32:17;;;;;;;5.47;1.75;;;18.50;99.90;;;;;;11309834;26;20014;-58
2024/04/08 22:37:22;;;;;;;0.63;0.63;;;20.40;99.90;;;;;;11307635;26;20014;-60
2024/04/08 22:42:26;;;;;;;1.98;0.95;;;21.60;99.90;;;;;;11310078;26;20084;-59
2024/04/08 22:47:33;;;;;;;0.10;0.10;;;22.10;99.90;;;;;;11316268;26;20116;-59
2024/04/08 22:52:39;;;;;;;0.40;0.40;;;22.40;99.90;;;;;;11312736;26;20002;-59
2024/04/08 22:57:44;;;;;;;0.00;0.00;;;22.50;99.90;;;;;;11320700;26;20037;-59
2024/04/08 23:02:54;;;;;;;0.47;0.47;;;22.50;99.90;;;;;;11318190;26;20010;-60
2024/04/08 23:08:01;;;;;;;1.40;1.00;;;22.50;99.90;;;;;;11322960;25;20006;-59
2024/04/08 23:13:07;;;;;;;0.57;0.57;;;22.50;99.90;;;;;;11317707;26;21208;-58
2024/04/08 23:18:20;;;;;;;1.55;0.75;;;22.50;99.90;;;;;;11324385;25;20036;-59
2024/04/08 23:23:35;;;;;;;1.38;1.27;;;22.50;99.90;;;;;;11323451;26;20069;-59
2024/04/08 23:28:42;;;;;;;0.00;0.00;;;22.50;99.90;;;;;;11325409;26;20005;-59
2024/04/08 23:33:57;;;;;;;0.80;0.73;;;22.40;99.90;;;;;;11322255;26;20006;-60
2024/04/08 23:39:02;;;;;;;2.10;1.05;;;22.40;99.90;;;;;;11319876;26;20010;-60
2024/04/08 23:44:07;;;;;;;0.20;0.20;;;22.30;99.90;;;;;;11328536;26;20147;-60
2024/04/08 23:49:16;;;;;;;0.10;0.10;;;22.20;99.90;;;;;;11318363;26;20020;-58
2024/04/08 23:54:20;;;;;;;0.47;0.47;;;22.20;99.90;;;;;;11303396;26;19998;-58
2024/04/08 23:59:25;;;;;;;0.00;0.00;;;22.10;99.90;;;;;;11318040;26;20049;-60
